Time;durP1;ratioP1;P1;durP2;ratioP2;P2;SDS_P1;SDS_P2;PMS_P1;PMS_P2;Temp;Humidity;BMP_temperature;BMP_pressure;BME280_temperature;BME280_humidity;BME280_pressure;Samples;Min_cycle;Max_cycle;Signal;HPM_P1;HPM_P2
2022/06/26 00:00:54;;;;;;;;;;;29.10;95.20;;;;;;5075850;28;19923;-79
2022/06/26 00:03:21;;;;;;;;;;;29.00;95.30;;;;;;5076046;28;20323;-80
2022/06/26 00:05:49;;;;;;;;;;;28.90;95.50;;;;;;5111132;28;19930;-79
2022/06/26 00:08:16;;;;;;;;;;;28.90;95.70;;;;;;5092757;28;19970;-80
2022/06/26 00:10:45;;;;;;;;;;;28.90;95.90;;;;;;5092604;28;19926;-80
2022/06/26 00:13:12;;;;;;;;;;;28.80;96.20;;;;;;5074961;28;19924;-80
2022/06/26 00:15:40;;;;;;;;;;;28.80;96.40;;;;;;5110558;28;19920;-80
2022/06/26 00:18:09;;;;;;;;;;;28.70;96.60;;;;;;5092280;28;19927;-80
2022/06/26 00:20:39;;;;;;;;;;;28.60;96.70;;;;;;5111002;28;19926;-80
2022/06/26 00:23:06;;;;;;;;;;;28.60;96.90;;;;;;5110790;28;20051;-80
2022/06/26 00:25:34;;;;;;;;;;;28.60;97.00;;;;;;5075408;28;19924;-80
2022/06/26 00:28:01;;;;;;;;;;;28.50;97.20;;;;;;5092567;28;19930;-80
2022/06/26 00:30:29;;;;;;;;;;;28.50;97.40;;;;;;5092371;28;19923;-79
2022/06/26 00:32:56;;;;;;;;;;;28.50;97.60;;;;;;5110109;28;19923;-80
2022/06/26 00:35:24;;;;;;;;;;;28.40;97.70;;;;;;5091641;28;20656;-79
2022/06/26 00:37:51;;;;;;;;;;;28.40;98.00;;;;;;5108099;28;20320;-80
2022/06/26 00:40:19;;;;;;;;;;;28.40;98.10;;;;;;5075508;28;19947;-80
2022/06/26 00:42:46;;;;;;;;;;;28.30;98.30;;;;;;5108963;28;19947;-80
2022/06/26 00:45:14;;;;;;;;;;;28.30;98.50;;;;;;5092104;28;19923;-79
2022/06/26 00:47:41;;;;;;;;;;;28.30;98.60;;;;;;5092435;28;19927;-79
2022/06/26 00:50:09;;;;;;;;;;;28.20;98.70;;;;;;5092074;28;20392;-79
2022/06/26 00:52:39;;;;;;;;;;;28.30;98.80;;;;;;5092011;28;20318;-80
2022/06/26 00:55:07;;;;;;;;;;;28.20;98.80;;;;;;5091483;28;19976;-79
2022/06/26 00:57:37;;;;;;;;;;;28.20;98.90;;;;;;5091572;28;20047;-79
2022/06/26 01:00:06;;;;;;;;;;;28.10;99.10;;;;;;5110003;28;19947;-80
2022/06/26 01:02:33;;;;;;;;;;;28.10;99.20;;;;;;5092031;28;19981;-79
2022/06/26 01:05:01;;;;;;;;;;;28.10;99.30;;;;;;5108864;28;19927;-80
2022/06/26 01:07:28;;;;;;;;;;;28.10;99.40;;;;;;5091849;28;20646;-80
2022/06/26 01:09:56;;;;;;;;;;;28.10;99.30;;;;;;5091772;28;19920;-80
2022/06/26 01:12:23;;;;;;;;;;;28.10;99.30;;;;;;5109820;28;19927;-79
2022/06/26 01:14:51;;;;;;;;;;;28.10;99.40;;;;;;5091326;28;19920;-80
2022/06/26 01:17:19;;;;;;;;;;;28.20;99.30;;;;;;5075144;28;20373;-79
2022/06/26 01:19:46;;;;;;;;;;;28.20;99.20;;;;;;5074922;28;19923;-79
2022/06/26 01:22:14;;;;;;;;;;;28.20;99.20;;;;;;5091704;28;19919;-80
2022/06/26 01:24:42;;;;;;;;;;;28.20;99.00;;;;;;5074895;28;19920;-80
2022/06/26 01:27:10;;;;;;;;;;;28.20;98.90;;;;;;5091649;28;19923;-79
2022/06/26 01:29:38;;;;;;;;;;;28.20;98.90;;;;;;5091368;28;19923;-80
2022/06/26 01:32:06;;;;;;;;;;;28.20;98.90;;;;;;5107658;28;20466;-79
2022/06/26 01:34:34;;;;;;;;;;;28.20;98.80;;;;;;5090588;28;19923;-80
2022/06/26 01:37:04;;;;;;;;;;;28.20;98.80;;;;;;5072907;28;19924;-79
2022/06/26 01:39:33;;;;;;;;;;;28.20;98.90;;;;;;5090878;28;19923;-79
2022/06/26 01:42:00;;;;;;;;;;;28.20;98.90;;;;;;5091468;28;20332;-79
2022/06/26 01:44:28;;;;;;;;;;;28.20;99.00;;;;;;5091899;28;20285;-79
2022/06/26 01:46:56;;;;;;;;;;;28.20;98.80;;;;;;5108002;28;19924;-79
2022/06/26 01:49:31;;;;;;;;;;;28.20;98.80;;;;;;5108352;28;19923;-79
2022/06/26 01:51:58;;;;;;;;;;;28.20;98.80;;;;;;5091110;28;19924;-79
2022/06/26 01:54:27;;;;;;;;;;;28.20;98.80;;;;;;5074477;28;19930;-79
2022/06/26 01:56:55;;;;;;;;;;;28.10;98.80;;;;;;5091331;28;20022;-80
2022/06/26 01:59:23;;;;;;;;;;;28.10;98.90;;;;;;5108053;28;19923;-79
2022/06/26 02:01:50;;;;;;;;;;;28.10;99.00;;;;;;5109464;28;19941;-80
2022/06/26 02:04:18;;;;;;;;;;;28.00;99.00;;;;;;5074345;28;19931;-79
2022/06/26 02:06:46;;;;;;;;;;;28.00;99.00;;;;;;5109315;28;20006;-80
2022/06/26 02:14:52;;;;;;;;;;;27.90;99.30;;;;;;5072248;28;19926;-79
2022/06/26 02:17:21;;;;;;;;;;;27.90;99.30;;;;;;5057801;28;19931;-79
2022/06/26 02:19:49;;;;;;;;;;;27.80;99.30;;;;;;5092569;28;19924;-79
2022/06/26 02:22:16;;;;;;;;;;;27.80;99.40;;;;;;5074785;28;19927;-79
2022/06/26 02:24:44;;;;;;;;;;;27.80;99.50;;;;;;5057864;28;20381;-79
2022/06/26 02:27:12;;;;;;;;;;;27.80;99.60;;;;;;5056995;28;19924;-79
2022/06/26 02:29:39;;;;;;;;;;;27.70;99.60;;;;;;5074156;28;19936;-79
2022/06/26 02:32:07;;;;;;;;;;;27.70;99.60;;;;;;5054907;28;19932;-79
2022/06/26 02:34:34;;;;;;;;;;;27.70;99.60;;;;;;5054043;28;20059;-80
2022/06/26 02:37:02;;;;;;;;;;;27.70;99.70;;;;;;5020915;28;19943;-79
2022/06/26 02:39:29;;;;;;;;;;;27.60;99.70;;;;;;5054342;28;19920;-79
2022/06/26 02:41:56;;;;;;;;;;;27.60;99.70;;;;;;5072080;28;20416;-80
2022/06/26 02:44:26;;;;;;;;;;;27.60;99.70;;;;;;5037544;28;19924;-80
2022/06/26 02:46:55;;;;;;;;;;;27.70;99.80;;;;;;5053843;28;19920;-78
2022/06/26 02:49:22;;;;;;;;;;;27.60;99.90;;;;;;5071972;28;19924;-79
2022/06/26 02:51:49;;;;;;;;;;;27.60;99.90;;;;;;5053754;28;20445;-79
2022/06/26 02:54:17;;;;;;;;;;;27.60;99.90;;;;;;5036962;28;19931;-79
2022/06/26 02:56:45;;;;;;;;;;;27.50;99.90;;;;;;5037253;28;19947;-79
2022/06/26 02:59:14;;;;;;;;;;;27.50;99.90;;;;;;5053404;28;19932;-79
2022/06/26 03:01:41;;;;;;;;;;;27.50;99.90;;;;;;5048886;28;19966;-79
2022/06/26 03:04:28;;;;;;;;;;;27.50;99.90;;;;;;5044649;28;19924;-80
2022/06/26 03:06:57;;;;;;;;;;;27.50;99.90;;;;;;5091811;28;19924;-79
2022/06/26 03:09:25;;;;;;;;;;;27.50;99.90;;;;;;5056744;28;20349;-79
2022/06/26 03:11:53;;;;;;;;;;;27.50;99.90;;;;;;5056843;28;19920;-80
2022/06/26 03:14:23;;;;;;;;;;;27.50;99.90;;;;;;5057026;28;19920;-79
2022/06/26 03:16:52;;;;;;;;;;;27.50;99.90;;;;;;5093938;28;19923;-79
2022/06/26 03:19:20;;;;;;;;;;;27.50;99.90;;;;;;5093686;28;20006;-79
2022/06/26 03:21:47;;;;;;;;;;;27.50;99.90;;;;;;5093662;28;19923;-79
2022/06/26 03:24:15;;;;;;;;;;;27.50;99.90;;;;;;5109792;28;20368;-79
2022/06/26 03:26:43;;;;;;;;;;;27.60;99.90;;;;;;5088840;28;19947;-79
2022/06/26 03:29:14;;;;;;;;;;;27.60;99.90;;;;;;5106292;28;19923;-78
2022/06/26 03:31:41;;;;;;;;;;;27.60;99.80;;;;;;5089767;28;19980;-78
2022/06/26 03:34:12;;;;;;;;;;;27.60;99.80;;;;;;5090051;28;20005;-79
2022/06/26 03:36:44;;;;;;;;;;;27.60;99.80;;;;;;5072790;28;19937;-79
2022/06/26 03:39:11;;;;;;;;;;;27.60;99.80;;;;;;5089845;28;20407;-79
2022/06/26 03:41:39;;;;;;;;;;;27.60;99.80;;;;;;5089762;28;19977;-79
2022/06/26 03:44:07;;;;;;;;;;;27.60;99.80;;;;;;5056730;28;19935;-79
2022/06/26 03:46:34;;;;;;;;;;;27.60;99.80;;;;;;5072982;28;19962;-79
2022/06/26 03:49:03;;;;;;;;;;;27.60;99.80;;;;;;5072827;28;19973;-79
2022/06/26 03:51:32;;;;;;;;;;;27.70;99.80;;;;;;5106109;28;19924;-77
2022/06/26 03:54:00;;;;;;;;;;;27.70;99.60;;;;;;5089755;28;20284;-79
2022/06/26 03:56:28;;;;;;;;;;;27.70;99.60;;;;;;5106400;28;19939;-79
2022/06/26 03:58:55;;;;;;;;;;;27.70;99.50;;;;;;5106144;28;19923;-78
2022/06/26 04:01:23;;;;;;;;;;;27.80;99.40;;;;;;5089319;28;20370;-79
2022/06/26 04:03:53;;;;;;;;;;;27.80;99.20;;;;;;5072899;28;20066;-79
2022/06/26 04:06:20;;;;;;;;;;;27.80;99.00;;;;;;5088928;28;20003;-79
2022/06/26 04:08:48;;;;;;;;;;;27.90;98.80;;;;;;5072654;28;19928;-80
2022/06/26 04:11:15;;;;;;;;;;;27.90;98.80;;;;;;5088486;28;20031;-79
2022/06/26 04:13:50;;;;;;;;;;;27.90;98.80;;;;;;5090096;28;20544;-80
2022/06/26 04:16:18;;;;;;;;;;;28.00;98.80;;;;;;5086765;28;19934;-79
2022/06/26 04:18:48;;;;;;;;;;;28.10;98.90;;;;;;5071608;28;19935;-79
2022/06/26 04:21:16;;;;;;;;;;;28.10;98.80;;;;;;5088440;28;20404;-79
2022/06/26 04:23:44;;;;;;;;;;;28.20;98.80;;;;;;5105787;28;19930;-79
2022/06/26 04:26:19;;;;;;;;;;;28.30;98.70;;;;;;5072120;28;19933;-79
2022/06/26 04:28:46;;;;;;;;;;;28.40;98.60;;;;;;5071678;28;19928;-79
2022/06/26 04:31:14;;;;;;;;;;;28.50;98.50;;;;;;5087999;28;20259;-79
2022/06/26 04:33:43;;;;;;;;;;;28.60;98.30;;;;;;5088683;28;20024;-80
2022/06/26 04:36:12;;;;;;;;;;;28.70;98.20;;;;;;5071990;28;20271;-79
2022/06/26 04:38:39;;;;;;;;;;;28.80;98.10;;;;;;5091987;28;19947;-79
2022/06/26 04:43:54;;;;;;;;;;;29.10;97.70;;;;;;5097280;28;19966;-79
2022/06/26 04:46:24;;;;;;;;;;;29.20;97.60;;;;;;5092008;28;20027;-79
2022/06/26 04:48:55;;;;;;;;;;;29.30;97.40;;;;;;5091509;28;19923;-78
2022/06/26 04:51:22;;;;;;;;;;;29.50;97.20;;;;;;5092452;28;19919;-79
2022/06/26 04:53:51;;;;;;;;;;;29.60;97.00;;;;;;5090504;28;20399;-79
2022/06/26 04:56:19;;;;;;;;;;;29.70;96.90;;;;;;5087572;28;20304;-79
2022/06/26 04:58:53;;;;;;;;;;;29.90;96.70;;;;;;5087800;28;19931;-79
2022/06/26 05:01:24;;;;;;;;;;;29.90;96.30;;;;;;5086787;28;19972;-79
2022/06/26 05:04:18;;;;;;;;;;;30.10;96.30;;;;;;5074735;28;19935;-79
2022/06/26 05:06:45;;;;;;;;;;;30.20;95.90;;;;;;5102625;28;19923;-78
2022/06/26 05:09:22;;;;;;;;;;;30.30;95.30;;;;;;5107789;28;19942;-78
2022/06/26 05:11:50;;;;;;;;;;;30.50;94.40;;;;;;5099819;28;19924;-79
2022/06/26 05:14:18;;;;;;;;;;;30.60;94.10;;;;;;5080594;28;19959;-79
2022/06/26 05:16:51;;;;;;;;;;;30.60;93.90;;;;;;5088324;28;20392;-79
2022/06/26 05:19:24;;;;;;;;;;;30.80;94.00;;;;;;5091688;28;19942;-78
2022/06/26 05:21:55;;;;;;;;;;;30.90;93.90;;;;;;5082402;28;19931;-79
2022/06/26 05:24:23;;;;;;;;;;;31.00;93.40;;;;;;5097462;28;19924;-78
2022/06/26 05:26:52;;;;;;;;;;;31.20;93.20;;;;;;5072127;28;19985;-78
2022/06/26 05:29:19;;;;;;;;;;;31.30;92.40;;;;;;5099508;28;20288;-79
2022/06/26 05:31:48;;;;;;;;;;;31.30;91.50;;;;;;5091985;28;19923;-79
2022/06/26 05:34:16;;;;;;;;;;;31.50;90.90;;;;;;5108043;28;19959;-79
2022/06/26 05:36:43;;;;;;;;;;;31.70;90.40;;;;;;5091043;28;19919;-79
2022/06/26 05:39:11;;;;;;;;;;;31.80;90.00;;;;;;5090156;28;19919;-80
2022/06/26 05:41:38;;;;;;;;;;;31.90;90.20;;;;;;5108101;28;19977;-79
2022/06/26 05:44:05;;;;;;;;;;;31.90;89.00;;;;;;5093588;28;19923;-79
2022/06/26 05:46:34;;;;;;;;;;;32.00;87.90;;;;;;5095868;28;19924;-79
2022/06/26 05:49:17;;;;;;;;;;;31.90;87.70;;;;;;5095326;28;19934;-80
2022/06/26 05:52:05;;;;;;;;;;;32.10;88.30;;;;;;5105462;28;19981;-80
2022/06/26 05:54:49;;;;;;;;;;;32.10;87.30;;;;;;5095361;28;19977;-79
2022/06/26 05:57:27;;;;;;;;;;;32.20;85.90;;;;;;5096506;28;19920;-79
2022/06/26 06:00:24;;;;;;;;;;;32.40;85.70;;;;;;5100038;28;19934;-81
2022/06/26 06:02:55;;;;;;;;;;;32.40;84.10;;;;;;5112291;28;19923;-79
2022/06/26 06:05:22;;;;;;;;;;;32.50;84.40;;;;;;5095557;28;19973;-79
2022/06/26 06:07:51;;;;;;;;;;;32.60;83.80;;;;;;5112283;28;19927;-79
2022/06/26 06:10:19;;;;;;;;;;;32.60;83.80;;;;;;5111992;28;20284;-79
2022/06/26 06:12:48;;;;;;;;;;;32.80;83.30;;;;;;5109166;28;19927;-79
2022/06/26 06:15:15;;;;;;;;;;;32.80;83.00;;;;;;5094644;28;19931;-79
2022/06/26 06:17:46;;;;;;;;;;;32.90;82.70;;;;;;5094825;28;20262;-79
2022/06/26 06:20:20;;;;;;;;;;;33.00;80.70;;;;;;5111941;28;20451;-79
2022/06/26 06:22:53;;;;;;;;;;;33.20;80.20;;;;;;5094766;28;20034;-79
2022/06/26 06:25:22;;;;;;;;;;;33.30;80.00;;;;;;5094345;28;19924;-79
2022/06/26 06:27:50;;;;;;;;;;;33.40;79.40;;;;;;5111617;28;19919;-80
2022/06/26 06:30:21;;;;;;;;;;;33.50;76.70;;;;;;5111978;28;20362;-80
2022/06/26 06:32:49;;;;;;;;;;;33.50;75.50;;;;;;5111787;28;19973;-80
2022/06/26 06:35:40;;;;;;;;;;;33.70;75.90;;;;;;5111681;28;20280;-80
2022/06/26 06:38:10;;;;;;;;;;;33.70;72.70;;;;;;5094316;28;20288;-80
2022/06/26 06:40:39;;;;;;;;;;;33.70;71.60;;;;;;5111657;28;20349;-80
2022/06/26 06:43:10;;;;;;;;;;;33.70;72.20;;;;;;5111089;28;19923;-79
2022/06/26 06:45:56;;;;;;;;;;;33.80;73.30;;;;;;5111861;28;20617;-80
2022/06/26 06:48:26;;;;;;;;;;;33.90;71.30;;;;;;5111149;28;19924;-80
2022/06/26 06:51:12;;;;;;;;;;;33.90;70.40;;;;;;5112221;28;20385;-80
2022/06/26 06:53:41;;;;;;;;;;;34.10;71.00;;;;;;5111024;28;19940;-80
2022/06/26 06:56:09;;;;;;;;;;;34.20;71.00;;;;;;5093995;28;20045;-80
2022/06/26 06:58:37;;;;;;;;;;;34.30;70.40;;;;;;5110632;28;20054;-79
2022/06/26 07:01:07;;;;;;;;;;;34.50;70.50;;;;;;5092376;28;20015;-80
2022/06/26 07:03:34;;;;;;;;;;;34.60;71.80;;;;;;5110823;28;19927;-80
2022/06/26 07:06:02;;;;;;;;;;;34.80;70.40;;;;;;5093679;28;20377;-80
2022/06/26 07:08:29;;;;;;;;;;;34.80;69.50;;;;;;5110688;28;20274;-80
2022/06/26 07:10:56;;;;;;;;;;;34.80;69.00;;;;;;5090090;28;19924;-79
2022/06/26 07:13:24;;;;;;;;;;;34.70;69.50;;;;;;5073764;28;19923;-78
2022/06/26 07:15:51;;;;;;;;;;;34.60;68.80;;;;;;5090050;28;19986;-79
2022/06/26 07:18:22;;;;;;;;;;;34.70;69.90;;;;;;5091663;28;20455;-79
2022/06/26 07:20:53;;;;;;;;;;;34.70;70.40;;;;;;5090311;28;20386;-79
2022/06/26 07:23:21;;;;;;;;;;;34.80;70.60;;;;;;5090261;28;19927;-79
2022/06/26 07:25:56;;;;;;;;;;;34.90;69.40;;;;;;5062854;28;20296;-79
2022/06/26 07:28:29;;;;;;;;;;;35.00;70.70;;;;;;5098499;28;20354;-79
2022/06/26 07:30:57;;;;;;;;;;;35.20;70.20;;;;;;5105678;28;20015;-79
2022/06/26 07:36:12;;;;;;;;;;;35.30;69.40;;;;;;5082332;28;20287;-78
2022/06/26 07:38:41;;;;;;;;;;;35.30;68.30;;;;;;5093825;28;19951;-78
2022/06/26 07:41:08;;;;;;;;;;;35.20;68.50;;;;;;5073375;28;20409;-79
2022/06/26 07:43:36;;;;;;;;;;;35.20;69.40;;;;;;5074279;28;20537;-80
2022/06/26 07:46:03;;;;;;;;;;;35.30;69.90;;;;;;5106273;28;19927;-79
2022/06/26 07:48:33;;;;;;;;;;;35.40;69.80;;;;;;5072754;28;19924;-79
2022/06/26 07:51:02;;;;;;;;;;;35.50;69.80;;;;;;5083779;28;19923;-79
2022/06/26 07:53:30;;;;;;;;;;;35.30;70.30;;;;;;5091752;28;19933;-79
2022/06/26 07:55:58;;;;;;;;;;;35.00;69.90;;;;;;5074245;28;19942;-79
2022/06/26 07:58:25;;;;;;;;;;;34.80;69.50;;;;;;5092556;28;20579;-79
2022/06/26 08:00:55;;;;;;;;;;;34.70;69.90;;;;;;5108380;28;19923;-79
2022/06/26 08:03:23;;;;;;;;;;;34.70;70.20;;;;;;5059980;28;19924;-79
2022/06/26 08:05:51;;;;;;;;;;;34.70;70.00;;;;;;5091433;28;19920;-79
2022/06/26 08:08:19;;;;;;;;;;;34.70;69.50;;;;;;5110260;28;19954;-79
2022/06/26 08:10:46;;;;;;;;;;;34.80;69.70;;;;;;5059679;28;19919;-78
2022/06/26 08:13:14;;;;;;;;;;;34.90;69.30;;;;;;5109577;28;20380;-79
2022/06/26 08:15:41;;;;;;;;;;;34.90;68.50;;;;;;5092103;28;19923;-79
2022/06/26 08:18:10;;;;;;;;;;;34.90;68.20;;;;;;5093001;28;19930;-79
2022/06/26 08:20:37;;;;;;;;;;;35.00;69.20;;;;;;5092508;28;19923;-79
2022/06/26 08:23:04;;;;;;;;;;;35.00;69.40;;;;;;5110283;28;20383;-79
2022/06/26 08:25:32;;;;;;;;;;;34.80;69.60;;;;;;5110840;28;19920;-79
2022/06/26 08:28:00;;;;;;;;;;;35.00;70.40;;;;;;5110554;28;19928;-79
2022/06/26 08:30:27;;;;;;;;;;;35.20;69.60;;;;;;5075651;28;19924;-79
2022/06/26 08:32:58;;;;;;;;;;;35.20;68.50;;;;;;5091946;28;20028;-79
2022/06/26 08:35:26;;;;;;;;;;;35.20;68.50;;;;;;5092660;28;19935;-79
2022/06/26 08:37:55;;;;;;;;;;;35.30;68.90;;;;;;5092186;28;19926;-79
2022/06/26 08:40:22;;;;;;;;;;;35.40;70.10;;;;;;5110628;28;19929;-79
2022/06/26 08:42:52;;;;;;;;;;;35.30;70.10;;;;;;5110009;28;19973;-79
2022/06/26 08:45:21;;;;;;;;;;;35.20;70.10;;;;;;5091980;28;19926;-79
2022/06/26 08:47:50;;;;;;;;;;;35.30;70.40;;;;;;5108932;28;19923;-79
2022/06/26 08:50:18;;;;;;;;;;;35.20;70.70;;;;;;5091570;28;19923;-79
2022/06/26 08:52:47;;;;;;;;;;;35.40;71.40;;;;;;5075036;28;19920;-79
2022/06/26 08:55:14;;;;;;;;;;;35.30;71.20;;;;;;5075148;28;20669;-79
2022/06/26 08:57:42;;;;;;;;;;;35.30;71.60;;;;;;5092108;28;20035;-79
2022/06/26 09:00:10;;;;;;;;;;;35.20;73.00;;;;;;5090509;28;19928;-79
2022/06/26 09:02:37;;;;;;;;;;;35.00;72.30;;;;;;5110268;28;19923;-79
2022/06/26 09:05:05;;;;;;;;;;;35.00;72.60;;;;;;5074926;28;19963;-79
2022/06/26 09:07:42;;;;;;;;;;;34.90;72.10;;;;;;5110091;28;20452;-79
2022/06/26 09:10:10;;;;;;;;;;;35.00;72.30;;;;;;5092061;28;19919;-79
2022/06/26 09:12:37;;;;;;;;;;;35.00;72.60;;;;;;5091792;28;20436;-78
2022/06/26 09:15:05;;;;;;;;;;;35.00;72.50;;;;;;5090848;28;19920;-78
2022/06/26 09:17:33;;;;;;;;;;;34.90;72.00;;;;;;5092187;28;19924;-79
2022/06/26 09:20:01;;;;;;;;;;;34.60;72.40;;;;;;5109942;28;19920;-79
2022/06/26 09:22:28;;;;;;;;;;;34.50;72.40;;;;;;5108949;28;20341;-79
2022/06/26 09:24:57;;;;;;;;;;;34.60;72.20;;;;;;5108150;28;20296;-79
2022/06/26 09:27:25;;;;;;;;;;;34.40;72.90;;;;;;5091988;28;19939;-78
2022/06/26 09:29:54;;;;;;;;;;;34.50;72.10;;;;;;5108838;28;19924;-79
2022/06/26 09:32:22;;;;;;;;;;;34.60;72.10;;;;;;5108495;28;20616;-79
2022/06/26 09:34:51;;;;;;;;;;;34.70;71.00;;;;;;5105380;28;19927;-78
2022/06/26 09:37:19;;;;;;;;;;;34.70;71.00;;;;;;5079834;28;20024;-79
2022/06/26 09:40:01;;;;;;;;;;;34.70;70.40;;;;;;5064102;28;20022;-79
2022/06/26 09:42:31;;;;;;;;;;;34.80;70.10;;;;;;5118463;28;20037;-80
2022/06/26 09:45:01;;;;;;;;;;;34.90;69.50;;;;;;5085101;28;19924;-78
2022/06/26 09:47:33;;;;;;;;;;;35.10;70.00;;;;;;5091276;28;20026;-79
2022/06/26 09:50:03;;;;;;;;;;;35.00;68.30;;;;;;5098595;28;19924;-78
2022/06/26 09:52:31;;;;;;;;;;;35.00;68.80;;;;;;5070235;28;20290;-77
2022/06/26 09:55:00;;;;;;;;;;;35.00;68.20;;;;;;5070622;28;19923;-77
2022/06/26 09:57:29;;;;;;;;;;;34.90;68.00;;;;;;5087501;28;20003;-77
2022/06/26 09:59:57;;;;;;;;;;;34.60;67.90;;;;;;5087518;28;19939;-77
2022/06/26 10:08:06;;;;;;;;;;;34.90;68.00;;;;;;5079285;28;19927;-77
2022/06/26 10:10:34;;;;;;;;;;;35.00;67.10;;;;;;5089294;28;19923;-75
2022/06/26 10:13:06;;;;;;;;;;;35.00;67.00;;;;;;5086945;28;19920;-78
2022/06/26 10:15:54;;;;;;;;;;;35.00;67.50;;;;;;5070813;28;19920;-78
2022/06/26 10:18:40;;;;;;;;;;;34.80;67.30;;;;;;5054415;28;19986;-78
2022/06/26 10:21:09;;;;;;;;;;;34.60;67.40;;;;;;5089075;28;19930;-79
2022/06/26 10:23:37;;;;;;;;;;;34.80;68.00;;;;;;5071293;28;20010;-78
2022/06/26 10:26:11;;;;;;;;;;;34.80;67.90;;;;;;5071254;28;19931;-79
2022/06/26 10:28:53;;;;;;;;;;;34.80;67.60;;;;;;5070844;28;19924;-78
2022/06/26 10:31:24;;;;;;;;;;;34.90;67.50;;;;;;5057767;28;19924;-78
2022/06/26 10:33:51;;;;;;;;;;;35.00;67.30;;;;;;5057538;28;19920;-78
2022/06/26 10:36:22;;;;;;;;;;;34.90;66.90;;;;;;5090986;28;19935;-78
2022/06/26 10:38:50;;;;;;;;;;;34.80;67.30;;;;;;5092086;28;19927;-78
2022/06/26 10:44:07;;;;;;;;;;;34.60;68.20;;;;;;5094402;28;19924;-78
2022/06/26 10:46:37;;;;;;;;;;;34.60;68.20;;;;;;5094351;28;19924;-78
2022/06/26 10:49:06;;;;;;;;;;;34.80;67.90;;;;;;5111206;28;19919;-78
2022/06/26 10:51:37;;;;;;;;;;;34.70;67.40;;;;;;5094765;28;20459;-78
2022/06/26 10:54:16;;;;;;;;;;;34.80;67.30;;;;;;5092937;28;19924;-79
2022/06/26 10:56:44;;;;;;;;;;;34.70;66.10;;;;;;5092626;28;20234;-78
2022/06/26 10:59:11;;;;;;;;;;;34.70;65.00;;;;;;5093192;28;19938;-78
2022/06/26 11:01:39;;;;;;;;;;;34.70;65.50;;;;;;5112003;28;19945;-79
2022/06/26 11:04:08;;;;;;;;;;;34.70;64.70;;;;;;5094367;28;19919;-78
2022/06/26 11:06:39;;;;;;;;;;;34.70;64.60;;;;;;5077090;28;19919;-78
2022/06/26 11:09:07;;;;;;;;;;;34.70;64.70;;;;;;5094006;28;20387;-79
2022/06/26 11:11:35;;;;;;;;;;;34.70;64.70;;;;;;5092910;28;19923;-78
2022/06/26 11:14:06;;;;;;;;;;;34.70;64.40;;;;;;5093419;28;19981;-77
2022/06/26 11:16:35;;;;;;;;;;;34.70;64.80;;;;;;5093982;28;19930;-77
2022/06/26 11:19:04;;;;;;;;;;;34.70;64.70;;;;;;5111867;28;19927;-77
2022/06/26 11:21:32;;;;;;;;;;;34.70;65.00;;;;;;5111827;28;19920;-77
2022/06/26 11:24:00;;;;;;;;;;;34.80;65.60;;;;;;5111891;28;20293;-77
2022/06/26 11:26:27;;;;;;;;;;;34.90;64.90;;;;;;5093437;28;19951;-77
2022/06/26 11:28:54;;;;;;;;;;;34.80;65.50;;;;;;5093761;28;19919;-77
2022/06/26 11:31:23;;;;;;;;;;;34.80;65.30;;;;;;5110422;28;19924;-77
2022/06/26 11:33:51;;;;;;;;;;;34.80;66.50;;;;;;5076514;28;20016;-77
2022/06/26 11:36:19;;;;;;;;;;;34.70;67.00;;;;;;5110230;28;20652;-76
2022/06/26 11:38:52;;;;;;;;;;;34.60;66.70;;;;;;5108235;28;20280;-77
2022/06/26 11:41:20;;;;;;;;;;;34.50;66.70;;;;;;5111020;28;19980;-76
2022/06/26 11:43:50;;;;;;;;;;;34.40;67.40;;;;;;5093575;28;19926;-77
2022/06/26 11:46:18;;;;;;;;;;;34.40;68.10;;;;;;5110256;28;19920;-77
2022/06/26 11:48:49;;;;;;;;;;;34.40;68.30;;;;;;5093247;28;19998;-76
2022/06/26 11:51:18;;;;;;;;;;;34.30;68.20;;;;;;5110600;28;19927;-77
2022/06/26 11:53:46;;;;;;;;;;;34.20;68.10;;;;;;5110173;28;19923;-77
2022/06/26 11:56:22;;;;;;;;;;;34.20;69.20;;;;;;5111014;28;19945;-77
2022/06/26 11:58:50;;;;;;;;;;;34.30;69.30;;;;;;5109996;28;20341;-76
2022/06/26 12:01:18;;;;;;;;;;;34.30;68.30;;;;;;5111094;28;19977;-77
2022/06/26 12:03:46;;;;;;;;;;;34.40;66.90;;;;;;5110051;28;19946;-77
2022/06/26 12:06:25;;;;;;;;;;;34.50;67.80;;;;;;5109659;28;19931;-77
2022/06/26 12:08:52;;;;;;;;;;;34.40;67.70;;;;;;5093395;28;20020;-77
2022/06/26 12:11:20;;;;;;;;;;;34.30;67.30;;;;;;5093089;28;20034;-77
2022/06/26 12:13:47;;;;;;;;;;;34.20;68.00;;;;;;5111168;28;19964;-77
2022/06/26 12:16:15;;;;;;;;;;;34.30;67.70;;;;;;5095652;28;19961;-76
2022/06/26 12:18:43;;;;;;;;;;;34.30;67.20;;;;;;5101893;28;19920;-77
2022/06/26 12:21:14;;;;;;;;;;;34.20;67.10;;;;;;5092193;28;20018;-77
2022/06/26 12:23:45;;;;;;;;;;;34.30;67.40;;;;;;5100419;28;19989;-75
2022/06/26 12:26:16;;;;;;;;;;;34.30;67.50;;;;;;5071486;28;20053;-83
2022/06/26 12:28:43;;;;;;;;;;;34.30;68.50;;;;;;5090204;28;19965;-79
2022/06/26 12:31:12;;;;;;;;;;;34.30;69.00;;;;;;5090054;28;20085;-78
2022/06/26 12:33:43;;;;;;;;;;;34.30;68.00;;;;;;5099207;28;20410;-74
2022/06/26 12:36:11;;;;;;;;;;;34.40;67.70;;;;;;5095800;28;19923;-74
2022/06/26 12:38:38;;;;;;;;;;;34.30;68.00;;;;;;5106541;28;19945;-74
2022/06/26 12:41:16;;;;;;;;;;;34.40;68.60;;;;;;5109093;28;19919;-74
2022/06/26 12:43:47;;;;;;;;;;;34.40;68.50;;;;;;5094343;28;19923;-74
2022/06/26 12:46:18;;;;;;;;;;;34.40;68.00;;;;;;5088738;28;19920;-74
2022/06/26 12:48:45;;;;;;;;;;;34.40;67.90;;;;;;5088787;28;19951;-77
2022/06/26 12:51:13;;;;;;;;;;;34.30;66.30;;;;;;5088486;28;19920;-77
2022/06/26 12:53:41;;;;;;;;;;;34.30;66.60;;;;;;5087954;28;19993;-77
2022/06/26 12:56:10;;;;;;;;;;;34.30;66.10;;;;;;5071856;28;19920;-78
2022/06/26 12:58:39;;;;;;;;;;;34.20;67.70;;;;;;5071320;28;20001;-77
2022/06/26 13:01:07;;;;;;;;;;;34.20;67.90;;;;;;5089770;28;19986;-77
2022/06/26 13:03:36;;;;;;;;;;;34.30;67.50;;;;;;5105050;28;19994;-77
2022/06/26 13:06:04;;;;;;;;;;;34.30;66.30;;;;;;5088002;28;20318;-76
2022/06/26 13:08:33;;;;;;;;;;;34.30;65.70;;;;;;5089509;28;19924;-76
2022/06/26 13:13:47;;;;;;;;;;;34.40;66.10;;;;;;5096380;28;19974;-77
2022/06/26 13:16:32;;;;;;;;;;;34.40;66.00;;;;;;5090366;28;19928;-78
2022/06/26 13:19:00;;;;;;;;;;;34.50;66.30;;;;;;5108194;28;19924;-78
2022/06/26 13:21:28;;;;;;;;;;;34.30;66.20;;;;;;5101077;28;19923;-78
2022/06/26 13:23:56;;;;;;;;;;;34.30;65.90;;;;;;5096180;28;19958;-78
2022/06/26 13:26:23;;;;;;;;;;;34.30;65.80;;;;;;5105506;28;19923;-78
2022/06/26 13:28:51;;;;;;;;;;;34.10;65.60;;;;;;5109717;28;19958;-77
2022/06/26 13:31:19;;;;;;;;;;;34.00;65.40;;;;;;5104798;28;19963;-78
2022/06/26 13:33:47;;;;;;;;;;;33.90;65.60;;;;;;5104596;28;20389;-78
2022/06/26 13:36:15;;;;;;;;;;;34.00;65.50;;;;;;5090491;28;19924;-78
2022/06/26 13:38:43;;;;;;;;;;;34.00;65.50;;;;;;5087544;28;20285;-78
2022/06/26 13:41:10;;;;;;;;;;;34.00;65.30;;;;;;5104675;28;20015;-78
2022/06/26 13:43:37;;;;;;;;;;;34.00;65.20;;;;;;5087344;28;19924;-77
2022/06/26 13:46:05;;;;;;;;;;;34.00;64.70;;;;;;5070692;28;19962;-78
2022/06/26 13:48:33;;;;;;;;;;;33.90;62.60;;;;;;5088228;28;20360;-78
2022/06/26 13:51:02;;;;;;;;;;;33.90;62.80;;;;;;5087559;28;19920;-78
2022/06/26 13:53:30;;;;;;;;;;;33.90;64.10;;;;;;5087796;28;19976;-78
2022/06/26 13:55:57;;;;;;;;;;;33.80;63.70;;;;;;5087903;28;20353;-78
2022/06/26 13:58:25;;;;;;;;;;;33.70;63.90;;;;;;5107966;28;19957;-78
2022/06/26 14:00:52;;;;;;;;;;;33.60;64.10;;;;;;5107870;28;20414;-77
2022/06/26 14:03:19;;;;;;;;;;;33.70;63.90;;;;;;5091073;28;20418;-78
2022/06/26 14:05:47;;;;;;;;;;;33.80;63.40;;;;;;5077299;28;20250;-78
2022/06/26 14:08:14;;;;;;;;;;;33.80;63.50;;;;;;5113477;28;19927;-78
2022/06/26 14:10:42;;;;;;;;;;;33.90;63.60;;;;;;5112396;28;19928;-78
2022/06/26 14:13:09;;;;;;;;;;;33.80;63.60;;;;;;5112398;28;20383;-78
2022/06/26 14:15:36;;;;;;;;;;;33.70;63.80;;;;;;5113217;28;19934;-78
2022/06/26 14:18:06;;;;;;;;;;;33.80;64.10;;;;;;5111434;28;20012;-79
2022/06/26 14:20:33;;;;;;;;;;;33.70;64.90;;;;;;5111797;28;19985;-78
2022/06/26 14:26:02;;;;;;;;;;;33.70;65.30;;;;;;5111707;28;19929;-78
2022/06/26 14:28:33;;;;;;;;;;;33.90;65.40;;;;;;5094975;28;20010;-78
2022/06/26 14:31:01;;;;;;;;;;;33.90;65.40;;;;;;5092002;28;19927;-78
2022/06/26 14:33:29;;;;;;;;;;;33.90;65.30;;;;;;5111697;28;19931;-76
2022/06/26 14:36:01;;;;;;;;;;;33.80;64.80;;;;;;5110707;28;19923;-77
2022/06/26 14:38:29;;;;;;;;;;;33.80;65.10;;;;;;5092146;28;19920;-78
2022/06/26 14:40:58;;;;;;;;;;;33.80;64.70;;;;;;5090763;28;19927;-78
2022/06/26 14:43:26;;;;;;;;;;;33.90;65.00;;;;;;5094187;28;19926;-78
2022/06/26 14:45:53;;;;;;;;;;;33.90;65.10;;;;;;5111173;28;19924;-77
2022/06/26 14:48:21;;;;;;;;;;;33.90;64.50;;;;;;5090663;28;20019;-77
2022/06/26 14:50:48;;;;;;;;;;;33.80;64.90;;;;;;5090201;28;19920;-77
2022/06/26 14:53:16;;;;;;;;;;;33.80;65.30;;;;;;5074258;28;19942;-77